createdAt,value
2022-12-11T00:00:15.904Z,3.81
2022-12-11T00:02:42.595Z,3.81
2022-12-11T00:05:09.683Z,3.80
2022-12-11T00:07:36.908Z,3.78
2022-12-11T00:10:04.189Z,3.76
2022-12-11T00:12:31.482Z,3.73
2022-12-11T00:14:58.170Z,3.69
2022-12-11T00:17:25.015Z,3.71
2022-12-11T00:19:51.732Z,3.72
2022-12-11T00:22:18.381Z,3.73
2022-12-11T00:24:45.022Z,3.72
2022-12-11T00:27:11.952Z,3.74
2022-12-11T00:29:38.847Z,3.75
2022-12-11T00:32:06.413Z,3.75
2022-12-11T00:34:33.110Z,3.78
2022-12-11T00:36:59.809Z,3.79
2022-12-11T00:39:26.444Z,3.78
2022-12-11T00:41:53.169Z,3.76
2022-12-11T00:44:19.845Z,3.77
2022-12-11T00:46:46.546Z,3.79
2022-12-11T00:49:13.230Z,3.78
2022-12-11T00:51:39.871Z,3.80
2022-12-11T00:54:06.893Z,3.82
2022-12-11T00:56:33.523Z,3.81
2022-12-11T00:59:00.215Z,3.78
2022-12-11T01:01:26.956Z,3.75
2022-12-11T01:04:02.253Z,3.74
2022-12-11T01:06:29.387Z,3.70
2022-12-11T01:09:15.249Z,3.63
2022-12-11T01:11:42.754Z,3.57
2022-12-11T01:14:10.258Z,3.58
2022-12-11T01:16:36.966Z,3.57
2022-12-11T01:19:03.751Z,3.54
2022-12-11T01:21:30.486Z,3.56
2022-12-11T01:23:59.452Z,3.58
2022-12-11T01:26:26.133Z,3.55
2022-12-11T01:28:52.798Z,3.57
2022-12-11T01:31:20.208Z,3.58
2022-12-11T01:33:46.902Z,3.58
2022-12-11T01:36:20.940Z,3.58
2022-12-11T01:38:48.431Z,3.57
2022-12-11T01:41:15.875Z,3.55
2022-12-11T01:44:05.198Z,3.53
2022-12-11T01:46:32.781Z,3.55
2022-12-11T01:49:00.187Z,3.53
2022-12-11T01:51:27.806Z,3.48
2022-12-11T01:54:01.061Z,3.45
2022-12-11T01:56:29.588Z,3.44
2022-12-11T01:59:00.347Z,3.41
2022-12-11T02:01:47.329Z,3.43
2022-12-11T02:04:14.587Z,3.42
2022-12-11T02:06:46.968Z,3.37
2022-12-11T02:09:19.298Z,3.35
2022-12-11T02:11:45.886Z,3.37
2022-12-11T02:14:21.386Z,3.37
2022-12-11T02:16:52.417Z,3.42
2022-12-11T02:19:31.387Z,3.39
2022-12-11T02:21:59.366Z,3.36
2022-12-11T02:24:45.100Z,3.32
2022-12-11T02:27:31.420Z,3.29
2022-12-11T02:30:17.572Z,3.26
2022-12-11T02:32:58.059Z,3.26
2022-12-11T02:35:28.338Z,3.26
2022-12-11T02:37:57.942Z,3.22
2022-12-11T02:40:26.875Z,3.23
2022-12-11T02:42:55.152Z,3.20
2022-12-11T02:45:22.905Z,3.17
2022-12-11T02:47:49.823Z,3.14
2022-12-11T02:50:18.659Z,3.10
2022-12-11T02:52:47.191Z,3.06
2022-12-11T02:55:14.983Z,3.03
2022-12-11T02:57:47.957Z,3.03
2022-12-11T03:00:14.816Z,3.07
2022-12-11T03:02:41.811Z,3.12
2022-12-11T03:05:10.285Z,3.14
2022-12-11T03:07:38.317Z,3.15
2022-12-11T03:10:07.253Z,3.12
2022-12-11T03:12:37.157Z,3.08
2022-12-11T03:15:05.871Z,3.08
2022-12-11T03:17:44.777Z,3.04
2022-12-11T03:20:30.699Z,2.99
2022-12-11T03:23:17.552Z,2.99
2022-12-11T03:25:53.663Z,2.99
2022-12-11T03:28:24.551Z,2.97
2022-12-11T03:30:53.700Z,2.96
2022-12-11T03:33:23.876Z,2.98
2022-12-11T03:35:59.467Z,2.96
2022-12-11T03:38:31.579Z,2.96
2022-12-11T03:41:01.005Z,2.92
2022-12-11T03:43:29.358Z,2.92
2022-12-11T03:45:57.130Z,2.93
2022-12-11T03:48:25.573Z,2.92
2022-12-11T03:50:52.620Z,2.89
2022-12-11T03:53:20.677Z,2.89
2022-12-11T03:55:48.442Z,2.91
2022-12-11T03:58:15.139Z,2.91
2022-12-11T04:00:41.753Z,2.88
2022-12-11T04:03:14.844Z,2.86
2022-12-11T04:05:42.732Z,2.81
2022-12-11T04:08:09.765Z,2.79
2022-12-11T04:10:36.546Z,2.76
2022-12-11T04:13:03.195Z,2.76
2022-12-11T04:15:29.799Z,2.76
2022-12-11T04:18:15.222Z,2.76
2022-12-11T04:21:00.521Z,2.74
2022-12-11T04:23:45.637Z,2.73
2022-12-11T04:26:17.080Z,2.70
2022-12-11T04:28:44.545Z,2.67
2022-12-11T04:31:12.737Z,2.65
2022-12-11T04:33:39.406Z,2.62
2022-12-11T04:36:06.737Z,2.61
2022-12-11T04:38:33.383Z,2.60
2022-12-11T04:41:11.346Z,2.57
2022-12-11T04:43:38.337Z,2.57
2022-12-11T04:46:07.508Z,2.59
2022-12-11T04:48:34.697Z,2.57
2022-12-11T04:51:01.370Z,2.54
2022-12-11T04:53:28.288Z,2.52
2022-12-11T04:55:55.305Z,2.49
2022-12-11T04:58:22.220Z,2.44
2022-12-11T05:00:48.895Z,2.43
2022-12-11T05:03:15.621Z,2.38
2022-12-11T05:05:47.720Z,2.34
2022-12-11T05:08:14.446Z,2.34
2022-12-11T05:10:44.528Z,2.34
2022-12-11T05:13:15.247Z,2.31
2022-12-11T05:15:41.893Z,2.31
2022-12-11T05:18:09.191Z,2.33
2022-12-11T05:20:35.779Z,2.32
2022-12-11T05:23:02.467Z,2.35
2022-12-11T05:25:29.095Z,2.37
2022-12-11T05:27:55.705Z,2.36
2022-12-11T05:30:22.341Z,2.30
2022-12-11T05:32:48.967Z,2.20
2022-12-11T05:35:15.657Z,2.11
2022-12-11T05:37:42.299Z,2.04
2022-12-11T05:40:09.303Z,2.02
2022-12-11T05:42:35.958Z,1.99
2022-12-11T05:45:02.612Z,2.00
2022-12-11T05:47:29.231Z,2.02
2022-12-11T05:49:55.855Z,2.04
2022-12-11T05:52:22.459Z,2.02
2022-12-11T05:54:50.396Z,2.01
2022-12-11T05:57:17.257Z,1.98
2022-12-11T05:59:45.409Z,1.94
2022-12-11T06:02:12.079Z,1.91
2022-12-11T06:04:38.838Z,1.88
2022-12-11T06:07:05.600Z,1.87
2022-12-11T06:09:32.252Z,1.86
2022-12-11T06:11:58.918Z,1.84
2022-12-11T06:14:25.575Z,1.83
2022-12-11T06:16:52.357Z,1.82
2022-12-11T06:19:19.551Z,1.79
2022-12-11T06:21:46.811Z,1.77
2022-12-11T06:24:13.687Z,1.75
2022-12-11T06:26:40.439Z,1.77
2022-12-11T06:29:10.909Z,1.76
2022-12-11T06:31:39.653Z,1.75
2022-12-11T06:34:06.439Z,1.73
2022-12-11T06:36:33.124Z,1.71
2022-12-11T06:38:59.774Z,1.68
2022-12-11T06:41:26.458Z,1.65
2022-12-11T06:43:53.152Z,1.60
2022-12-11T06:46:20.275Z,1.54
2022-12-11T06:48:47.754Z,1.52
2022-12-11T06:51:16.258Z,1.55
2022-12-11T06:53:43.217Z,1.49
2022-12-11T06:56:13.403Z,1.45
2022-12-11T06:58:40.557Z,1.36
2022-12-11T07:01:20.757Z,1.25
2022-12-11T07:03:47.770Z,1.20
2022-12-11T07:06:15.175Z,1.20
2022-12-11T07:08:42.124Z,1.19
2022-12-11T07:11:09.986Z,1.23
2022-12-11T07:13:36.749Z,1.28
2022-12-11T07:16:04.859Z,1.32
2022-12-11T07:18:32.836Z,1.37
2022-12-11T07:21:00.581Z,1.38
2022-12-11T07:23:28.546Z,1.36
2022-12-11T07:25:55.653Z,1.36
2022-12-11T07:28:22.505Z,1.40
2022-12-11T07:30:49.688Z,1.45
2022-12-11T07:33:16.383Z,1.49
2022-12-11T07:35:43.833Z,1.51
2022-12-11T07:38:10.483Z,1.56
2022-12-11T07:40:37.422Z,1.62
2022-12-11T07:43:04.101Z,1.65
2022-12-11T07:45:30.812Z,1.70
2022-12-11T07:47:57.486Z,1.73
2022-12-11T07:50:24.187Z,1.76
2022-12-11T07:52:50.951Z,1.71
2022-12-11T07:55:17.582Z,1.70
2022-12-11T07:57:44.247Z,1.71
2022-12-11T08:00:11.959Z,1.75
2022-12-11T08:02:38.690Z,1.75
2022-12-11T08:05:05.810Z,1.71
2022-12-11T08:07:34.429Z,1.71
2022-12-11T08:10:01.196Z,1.70
2022-12-11T08:12:27.892Z,1.69
2022-12-11T08:14:54.724Z,1.67
2022-12-11T08:17:25.864Z,1.71
2022-12-11T08:19:55.713Z,1.71
2022-12-11T08:22:22.464Z,1.75
2022-12-11T08:24:49.120Z,1.78
2022-12-11T08:27:15.825Z,1.77
2022-12-11T08:29:44.271Z,1.77
2022-12-11T08:32:12.623Z,1.82
2022-12-11T08:34:39.430Z,1.80
2022-12-11T08:37:06.198Z,1.82
2022-12-11T08:39:33.020Z,1.82
2022-12-11T08:41:59.627Z,1.83
2022-12-11T08:44:27.452Z,1.85
2022-12-11T08:46:54.179Z,1.82
2022-12-11T08:49:20.846Z,1.82
2022-12-11T08:51:47.503Z,1.81
2022-12-11T08:54:14.214Z,1.81
2022-12-11T08:56:40.947Z,1.69
2022-12-11T08:59:07.742Z,1.68
2022-12-11T09:01:34.559Z,1.70
2022-12-11T09:04:01.370Z,1.76
2022-12-11T09:06:29.414Z,1.74
2022-12-11T09:08:56.467Z,1.80
2022-12-11T09:11:33.261Z,1.82
2022-12-11T09:14:05.444Z,1.88
2022-12-11T09:16:34.400Z,1.91
2022-12-11T09:19:01.051Z,1.97
2022-12-11T09:21:29.316Z,1.96
2022-12-11T09:23:57.301Z,1.98
2022-12-11T09:26:24.606Z,2.00
2022-12-11T09:28:53.481Z,2.04
2022-12-11T09:31:24.660Z,2.07
2022-12-11T09:33:52.248Z,2.07
2022-12-11T09:36:19.285Z,2.06
2022-12-11T09:38:46.138Z,2.07
2022-12-11T09:41:22.322Z,2.08
2022-12-11T09:43:52.586Z,2.11
2022-12-11T09:46:23.544Z,2.09
2022-12-11T09:48:51.578Z,2.09
2022-12-11T09:51:20.937Z,2.11
2022-12-11T09:53:49.667Z,2.12
2022-12-11T09:56:28.556Z,2.13
2022-12-11T09:59:30.647Z,2.15
2022-12-11T10:02:31.085Z,2.14
2022-12-11T10:05:28.948Z,2.17
2022-12-11T10:08:09.306Z,2.19
2022-12-11T10:10:43.884Z,2.15
2022-12-11T10:13:36.833Z,2.09
2022-12-11T10:16:09.643Z,2.09
2022-12-11T10:18:36.822Z,2.13
2022-12-11T10:21:03.772Z,2.06
2022-12-11T10:23:41.897Z,2.00
2022-12-11T10:26:12.873Z,1.97
2022-12-11T10:28:39.560Z,1.96
2022-12-11T10:31:24.791Z,1.98
2022-12-11T10:34:01.310Z,2.01
2022-12-11T10:36:33.067Z,2.12
2022-12-11T10:38:59.830Z,2.21
2022-12-11T10:41:40.004Z,2.24
2022-12-11T10:44:21.102Z,2.24
2022-12-11T10:46:48.778Z,2.22
2022-12-11T10:49:23.376Z,2.28
2022-12-11T10:51:50.607Z,2.32
2022-12-11T10:54:27.619Z,2.31
2022-12-11T10:56:54.559Z,2.27
2022-12-11T10:59:26.832Z,2.28
2022-12-11T11:01:53.958Z,2.28
2022-12-11T11:04:30.223Z,2.31
2022-12-11T11:07:04.629Z,2.38
2022-12-11T11:09:34.085Z,2.39
2022-12-11T11:12:07.392Z,2.45
2022-12-11T11:14:34.687Z,2.44
2022-12-11T11:17:01.465Z,2.43
2022-12-11T11:19:34.372Z,2.43
2022-12-11T11:22:03.101Z,2.41
2022-12-11T11:24:41.158Z,2.42
2022-12-11T11:27:26.596Z,2.44
2022-12-11T11:29:58.357Z,2.47
2022-12-11T11:32:45.848Z,2.50
2022-12-11T11:35:12.713Z,2.54
2022-12-11T11:37:45.536Z,2.59
2022-12-11T11:40:16.485Z,2.59
2022-12-11T11:43:01.773Z,2.67
2022-12-11T11:45:36.387Z,2.62
2022-12-11T11:48:13.411Z,2.59
2022-12-11T11:50:44.985Z,2.60
2022-12-11T11:53:19.503Z,2.62
2022-12-11T11:56:06.515Z,2.64
2022-12-11T11:58:55.600Z,2.66
2022-12-11T12:01:22.475Z,2.66
2022-12-11T12:03:49.919Z,2.74
2022-12-11T12:06:36.758Z,2.77
2022-12-11T12:09:06.621Z,2.82
2022-12-11T12:11:33.278Z,2.87
2022-12-11T12:14:03.433Z,2.89
2022-12-11T12:19:50.821Z,2.87
2022-12-11T12:22:20.509Z,2.93
2022-12-11T12:24:59.588Z,2.99
2022-12-11T12:27:52.959Z,2.98
2022-12-11T12:30:22.842Z,3.07
2022-12-11T12:33:13.464Z,3.05
2022-12-11T12:36:06.810Z,3.07
2022-12-11T12:38:40.323Z,3.10
2022-12-11T12:41:06.941Z,3.12
2022-12-11T12:43:52.413Z,3.06
2022-12-11T12:46:37.943Z,3.08
2022-12-11T12:49:05.638Z,3.09
2022-12-11T12:51:32.511Z,3.12
2022-12-11T12:54:10.535Z,3.17
2022-12-11T12:56:40.766Z,3.24
2022-12-11T12:59:19.038Z,3.25
2022-12-11T13:01:52.593Z,3.26
2022-12-11T13:07:27.431Z,3.28
2022-12-11T13:10:05.375Z,3.29
2022-12-11T13:12:42.963Z,3.29
2022-12-11T13:15:26.244Z,3.29
2022-12-11T13:17:52.979Z,3.31
2022-12-11T13:20:21.016Z,3.33
2022-12-11T13:22:48.499Z,3.32
2022-12-11T13:25:26.167Z,3.32
2022-12-11T13:27:53.048Z,3.35
2022-12-11T13:30:23.087Z,3.38
2022-12-11T13:32:55.715Z,3.40
2022-12-11T13:35:22.399Z,3.42
2022-12-11T13:37:52.326Z,3.43
2022-12-11T13:40:20.250Z,3.46
2022-12-11T13:42:49.653Z,3.46
2022-12-11T13:45:21.972Z,3.40
2022-12-11T13:47:48.618Z,3.39
2022-12-11T13:50:20.635Z,3.40
2022-12-11T13:52:54.818Z,3.45
2022-12-11T13:55:27.889Z,3.36
2022-12-11T13:57:54.482Z,3.32
2022-12-11T14:00:22.990Z,3.32
2022-12-11T14:02:50.866Z,3.33
2022-12-11T14:05:18.472Z,3.34
2022-12-11T14:07:49.659Z,3.36
2022-12-11T14:10:19.651Z,3.41
2022-12-11T14:12:55.388Z,3.45
2022-12-11T14:15:22.262Z,3.48
2022-12-11T14:17:51.946Z,3.50
2022-12-11T14:20:27.943Z,3.55
2022-12-11T14:23:21.273Z,3.57
2022-12-11T14:26:09.916Z,3.61
2022-12-11T14:28:40.400Z,3.64
2022-12-11T14:31:14.547Z,3.66
2022-12-11T14:33:45.648Z,3.66
2022-12-11T14:36:18.739Z,3.65
2022-12-11T14:38:46.943Z,3.71
2022-12-11T14:41:20.239Z,3.72
2022-12-11T14:43:51.329Z,3.73
2022-12-11T14:46:25.002Z,3.75
2022-12-11T14:49:00.790Z,3.77
2022-12-11T14:51:32.294Z,3.77
2022-12-11T14:54:04.680Z,3.74
2022-12-11T14:56:36.095Z,3.77
2022-12-11T14:59:08.584Z,3.76
2022-12-11T15:01:37.422Z,3.75
2022-12-11T15:04:23.373Z,3.74
2022-12-11T15:06:50.991Z,3.73
2022-12-11T15:09:17.735Z,3.72
2022-12-11T15:11:45.106Z,3.70
2022-12-11T15:14:12.685Z,3.70
2022-12-11T15:16:40.939Z,3.68
2022-12-11T15:19:14.868Z,3.67
2022-12-11T15:21:41.557Z,3.64
2022-12-11T15:24:21.856Z,3.65
2022-12-11T15:26:48.915Z,3.67
2022-12-11T15:29:51.153Z,3.70
2022-12-11T15:32:19.799Z,3.71
2022-12-11T15:34:57.134Z,3.71
2022-12-11T15:37:27.361Z,3.76
2022-12-11T15:39:55.006Z,3.73
2022-12-11T15:42:26.326Z,3.72
2022-12-11T15:44:54.016Z,3.71
2022-12-11T15:47:24.981Z,3.68
2022-12-11T15:49:55.729Z,3.69
2022-12-11T15:52:22.426Z,3.70
2022-12-11T15:54:49.115Z,3.70
2022-12-11T15:57:25.791Z,3.71
2022-12-11T15:59:54.240Z,3.70
2022-12-11T16:02:21.103Z,3.70
2022-12-11T16:04:47.844Z,3.70
2022-12-11T16:07:33.683Z,3.70
2022-12-11T16:10:00.660Z,3.63
2022-12-11T16:12:27.445Z,3.55
2022-12-11T16:14:54.190Z,3.53
2022-12-11T16:17:20.795Z,3.49
2022-12-11T16:19:50.117Z,3.43
2022-12-11T16:22:16.984Z,3.42
2022-12-11T16:24:43.772Z,3.38
2022-12-11T16:27:10.475Z,3.39
2022-12-11T16:29:42.910Z,3.40
2022-12-11T16:32:09.802Z,3.37
2022-12-11T16:34:37.776Z,3.38
2022-12-11T16:37:05.338Z,3.39
2022-12-11T16:39:31.975Z,3.40
2022-12-11T16:41:58.754Z,3.39
2022-12-11T16:44:26.947Z,3.45
2022-12-11T16:46:54.122Z,3.47
2022-12-11T16:49:21.308Z,3.52
2022-12-11T16:51:49.557Z,3.53
2022-12-11T16:54:16.265Z,3.49
2022-12-11T16:56:43.089Z,3.52
2022-12-11T16:59:09.784Z,3.52
2022-12-11T17:01:36.481Z,3.52
2022-12-11T17:04:03.156Z,3.55
2022-12-11T17:06:29.938Z,3.61
2022-12-11T17:08:56.612Z,3.55
2022-12-11T17:11:25.120Z,3.52
2022-12-11T17:13:59.065Z,3.50
2022-12-11T17:16:29.190Z,3.56
2022-12-11T17:18:56.891Z,3.54
2022-12-11T17:21:23.822Z,3.55
2022-12-11T17:23:50.945Z,3.60
2022-12-11T17:26:18.500Z,3.63
2022-12-11T17:28:45.323Z,3.71
2022-12-11T17:31:16.493Z,3.76
2022-12-11T17:33:44.312Z,3.73
2022-12-11T17:36:13.522Z,3.70
2022-12-11T17:38:40.152Z,3.74
2022-12-11T17:41:07.412Z,3.77
2022-12-11T17:43:34.259Z,3.78
2022-12-11T17:46:00.982Z,3.76
2022-12-11T17:48:28.220Z,3.78
2022-12-11T17:50:54.899Z,3.85
2022-12-11T17:53:22.112Z,3.84
2022-12-11T17:55:48.859Z,3.81
2022-12-11T17:58:16.948Z,3.76
2022-12-11T18:00:44.555Z,3.76
2022-12-11T18:03:11.660Z,3.75
2022-12-11T18:05:46.008Z,3.73
2022-12-11T18:08:16.776Z,3.73
2022-12-11T18:10:43.817Z,3.79
2022-12-11T18:13:10.458Z,3.76
2022-12-11T18:15:37.707Z,3.78
2022-12-11T18:18:04.921Z,3.78
2022-12-11T18:20:31.867Z,3.78
2022-12-11T18:22:58.526Z,3.79
2022-12-11T18:25:25.211Z,3.78
2022-12-11T18:27:52.208Z,3.77
2022-12-11T18:30:18.910Z,3.74
2022-12-11T18:32:45.596Z,3.71
2022-12-11T18:35:12.515Z,3.67
2022-12-11T18:37:39.533Z,3.67
2022-12-11T18:40:07.346Z,3.68
2022-12-11T18:42:34.311Z,3.70
2022-12-11T18:45:01.186Z,3.75
2022-12-11T18:47:27.966Z,3.72
2022-12-11T18:49:54.638Z,3.68
2022-12-11T18:52:21.306Z,3.70
2022-12-11T18:54:49.313Z,3.66
2022-12-11T18:57:15.929Z,3.68
2022-12-11T19:00:07.573Z,3.70
2022-12-11T19:02:35.185Z,3.68
2022-12-11T19:05:01.858Z,3.59
2022-12-11T19:07:28.626Z,3.54
2022-12-11T19:09:55.386Z,3.51
2022-12-11T19:12:22.095Z,3.52
2022-12-11T19:14:49.087Z,3.51
2022-12-11T19:17:15.714Z,3.46
2022-12-11T19:19:47.514Z,3.49
2022-12-11T19:22:15.233Z,3.48
2022-12-11T19:24:41.888Z,3.45
2022-12-11T19:27:13.278Z,3.45
2022-12-11T19:29:41.265Z,3.42
2022-12-11T19:32:07.874Z,3.42
2022-12-11T19:34:34.502Z,3.37
2022-12-11T19:37:01.149Z,3.32
2022-12-11T19:39:27.797Z,3.29
2022-12-11T19:41:54.677Z,3.31
2022-12-11T19:44:21.437Z,3.36
2022-12-11T19:46:48.215Z,3.33
2022-12-11T19:49:15.588Z,3.30
2022-12-11T19:51:42.768Z,3.27
2022-12-11T19:54:11.616Z,3.25
2022-12-11T19:56:38.318Z,3.27
2022-12-11T19:59:06.895Z,3.25
2022-12-11T20:01:36.442Z,3.23
2022-12-11T20:04:10.758Z,3.21
2022-12-11T20:06:39.232Z,3.22
2022-12-11T20:09:07.529Z,3.22
2022-12-11T20:11:34.271Z,3.20
2022-12-11T20:14:01.021Z,3.17
2022-12-11T20:16:53.854Z,3.18
2022-12-11T20:19:14.828Z,3.18
2022-12-11T20:21:42.464Z,3.17
2022-12-11T20:24:09.559Z,3.14
2022-12-11T20:26:37.121Z,3.14
2022-12-11T20:29:08.532Z,3.11
2022-12-11T20:31:36.121Z,3.10
2022-12-11T20:34:02.798Z,3.05
2022-12-11T20:36:29.481Z,2.98
2022-12-11T20:38:56.380Z,2.94
2022-12-11T20:41:24.296Z,2.94
2022-12-11T20:43:53.280Z,2.96
2022-12-11T20:46:20.979Z,2.93
2022-12-11T20:48:48.109Z,2.94
2022-12-11T20:51:18.564Z,2.94
2022-12-11T20:53:50.457Z,2.91
2022-12-11T20:56:42.199Z,2.94
2022-12-11T20:59:24.233Z,2.95
2022-12-11T21:01:50.942Z,2.94
2022-12-11T21:04:17.655Z,2.94
2022-12-11T21:06:44.342Z,2.96
2022-12-11T21:09:17.946Z,2.92
2022-12-11T21:11:44.627Z,2.97
2022-12-11T21:14:11.244Z,2.94
2022-12-11T21:16:38.181Z,2.91
2022-12-11T21:19:06.610Z,2.94
2022-12-11T21:21:34.023Z,2.92
2022-12-11T21:24:00.657Z,2.93
2022-12-11T21:26:27.326Z,2.90
2022-12-11T21:28:54.181Z,2.87
2022-12-11T21:31:20.971Z,2.83
2022-12-11T21:33:48.198Z,2.84
2022-12-11T21:36:15.426Z,2.87
2022-12-11T21:38:43.843Z,2.87
2022-12-11T21:41:15.770Z,2.90
2022-12-11T21:44:32.922Z,2.93
2022-12-11T21:46:30.701Z,2.95
2022-12-11T21:48:57.452Z,2.99
2022-12-11T21:51:29.684Z,3.00
2022-12-11T21:53:59.322Z,3.00
2022-12-11T21:56:27.447Z,2.98
2022-12-11T21:58:54.646Z,3.00
2022-12-11T22:01:25.925Z,3.01
2022-12-11T22:03:53.491Z,3.04
2022-12-11T22:06:22.371Z,3.06
2022-12-11T22:08:49.422Z,3.03
2022-12-11T22:11:20.242Z,3.00
2022-12-11T22:13:47.401Z,3.01
2022-12-11T22:16:14.099Z,3.01
2022-12-11T22:18:40.906Z,2.97
2022-12-11T22:21:10.913Z,2.96
2022-12-11T22:23:39.184Z,2.97
2022-12-11T22:26:09.867Z,2.97
2022-12-11T22:28:36.558Z,3.03
2022-12-11T22:31:03.197Z,3.05
2022-12-11T22:33:29.891Z,3.04
2022-12-11T22:35:57.320Z,3.07
2022-12-11T22:38:24.218Z,3.07
2022-12-11T22:40:50.884Z,3.08
2022-12-11T22:43:17.670Z,3.03
2022-12-11T22:45:44.359Z,3.01
2022-12-11T22:48:11.034Z,3.00
2022-12-11T22:50:38.651Z,3.04
2022-12-11T22:53:05.725Z,2.97
2022-12-11T22:55:32.685Z,2.95
2022-12-11T22:57:59.315Z,2.93
2022-12-11T23:00:26.327Z,2.93
2022-12-11T23:02:53.078Z,2.91
2022-12-11T23:05:19.789Z,2.92
2022-12-11T23:07:46.664Z,2.89
2022-12-11T23:10:13.459Z,2.91
2022-12-11T23:12:40.281Z,2.92
2022-12-11T23:15:07.982Z,2.96
2022-12-11T23:17:34.574Z,2.97
2022-12-11T23:20:03.855Z,2.96
2022-12-11T23:22:30.816Z,2.99
2022-12-11T23:24:57.757Z,2.96
2022-12-11T23:27:24.520Z,2.98
2022-12-11T23:29:51.137Z,2.98
2022-12-11T23:32:17.809Z,3.00
2022-12-11T23:34:44.455Z,2.98
2022-12-11T23:37:11.278Z,2.97
2022-12-11T23:39:45.534Z,2.95
2022-12-11T23:42:12.163Z,2.96
2022-12-11T23:44:38.885Z,2.96
2022-12-11T23:47:05.574Z,2.96
2022-12-11T23:49:32.313Z,2.96
2022-12-11T23:51:59.041Z,2.95
2022-12-11T23:54:25.871Z,2.97
2022-12-11T23:57:19.652Z,2.99
2022-12-11T23:59:52.775Z,2.98
